sensor_id;sensor_type;location;lat;lon;timestamp;temperature;humidity
11647;DHT22;5880;52.342;9.662;2022-10-17T00:01:45;17.50;64.50
11647;DHT22;5880;52.342;9.662;2022-10-17T00:04:11;17.50;64.50
11647;DHT22;5880;52.342;9.662;2022-10-17T00:06:37;17.80;64.70
11647;DHT22;5880;52.342;9.662;2022-10-17T00:09:04;17.50;64.70
11647;DHT22;5880;52.342;9.662;2022-10-17T00:11:29;17.50;64.80
11647;DHT22;5880;52.342;9.662;2022-10-17T00:13:55;17.40;64.70
11647;DHT22;5880;52.342;9.662;2022-10-17T00:16:30;17.40;65.50
11647;DHT22;5880;52.342;9.662;2022-10-17T00:18:59;17.40;65.50
11647;DHT22;5880;52.342;9.662;2022-10-17T00:21:25;17.40;65.10
11647;DHT22;5880;52.342;9.662;2022-10-17T00:23:51;17.40;65.00
11647;DHT22;5880;52.342;9.662;2022-10-17T00:26:18;17.40;65.20
11647;DHT22;5880;52.342;9.662;2022-10-17T00:28:49;17.40;65.20
11647;DHT22;5880;52.342;9.662;2022-10-17T00:31:17;17.40;65.60
11647;DHT22;5880;52.342;9.662;2022-10-17T00:33:45;17.40;66.20
11647;DHT22;5880;52.342;9.662;2022-10-17T00:38:43;17.40;65.90
11647;DHT22;5880;52.342;9.662;2022-10-17T00:41:13;17.40;65.50
11647;DHT22;5880;52.342;9.662;2022-10-17T00:46:55;17.40;66.20
11647;DHT22;5880;52.342;9.662;2022-10-17T00:49:30;17.30;65.20
11647;DHT22;5880;52.342;9.662;2022-10-17T00:52:04;17.30;65.40
11647;DHT22;5880;52.342;9.662;2022-10-17T00:54:48;17.30;65.50
11647;DHT22;5880;52.342;9.662;2022-10-17T00:57:18;17.30;66.00
11647;DHT22;5880;52.342;9.662;2022-10-17T00:59:46;17.30;65.50
11647;DHT22;5880;52.342;9.662;2022-10-17T01:02:18;17.30;65.80
11647;DHT22;5880;52.342;9.662;2022-10-17T01:04:47;17.20;65.80
11647;DHT22;5880;52.342;9.662;2022-10-17T01:07:15;17.20;65.90
11647;DHT22;5880;52.342;9.662;2022-10-17T01:09:42;17.30;65.90
11647;DHT22;5880;52.342;9.662;2022-10-17T01:20:59;17.30;67.20
11647;DHT22;5880;52.342;9.662;2022-10-17T01:26:58;17.30;67.30
11647;DHT22;5880;52.342;9.662;2022-10-17T01:30:23;17.20;66.50
11647;DHT22;5880;52.342;9.662;2022-10-17T01:33:15;17.20;66.90
11647;DHT22;5880;52.342;9.662;2022-10-17T01:38:32;17.20;66.50
11647;DHT22;5880;52.342;9.662;2022-10-17T01:41:16;17.20;66.70
11647;DHT22;5880;52.342;9.662;2022-10-17T01:44:36;17.20;66.90
11647;DHT22;5880;52.342;9.662;2022-10-17T01:47:14;17.20;66.70
11647;DHT22;5880;52.342;9.662;2022-10-17T01:49:44;17.10;66.00
11647;DHT22;5880;52.342;9.662;2022-10-17T01:52:17;17.20;65.80
11647;DHT22;5880;52.342;9.662;2022-10-17T01:54:51;17.10;66.00
11647;DHT22;5880;52.342;9.662;2022-10-17T01:57:36;17.10;66.10
11647;DHT22;5880;52.342;9.662;2022-10-17T02:00:10;17.10;66.60
11647;DHT22;5880;52.342;9.662;2022-10-17T02:02:40;17.00;66.00
11647;DHT22;5880;52.342;9.662;2022-10-17T02:05:09;17.00;65.90
11647;DHT22;5880;52.342;9.662;2022-10-17T02:07:35;17.00;66.10
11647;DHT22;5880;52.342;9.662;2022-10-17T02:10:03;17.00;66.30
11647;DHT22;5880;52.342;9.662;2022-10-17T02:12:49;17.00;66.60
11647;DHT22;5880;52.342;9.662;2022-10-17T02:15:45;17.00;67.20
11647;DHT22;5880;52.342;9.662;2022-10-17T02:21:26;17.00;66.60
11647;DHT22;5880;52.342;9.662;2022-10-17T02:26:54;17.00;67.20
11647;DHT22;5880;52.342;9.662;2022-10-17T02:29:35;17.00;67.00
11647;DHT22;5880;52.342;9.662;2022-10-17T02:32:18;17.10;67.30
11647;DHT22;5880;52.342;9.662;2022-10-17T02:34:54;17.10;67.30
11647;DHT22;5880;52.342;9.662;2022-10-17T02:37:27;17.10;67.10
11647;DHT22;5880;52.342;9.662;2022-10-17T02:39:57;17.10;67.40
11647;DHT22;5880;52.342;9.662;2022-10-17T02:42:26;17.10;67.20
11647;DHT22;5880;52.342;9.662;2022-10-17T02:44:54;17.20;67.20
11647;DHT22;5880;52.342;9.662;2022-10-17T02:47:29;17.10;67.10
11647;DHT22;5880;52.342;9.662;2022-10-17T02:49:56;17.10;68.00
11647;DHT22;5880;52.342;9.662;2022-10-17T02:52:39;17.10;67.10
11647;DHT22;5880;52.342;9.662;2022-10-17T02:57:56;17.10;67.30
11647;DHT22;5880;52.342;9.662;2022-10-17T03:00:38;17.10;67.10
11647;DHT22;5880;52.342;9.662;2022-10-17T03:03:19;17.10;67.30
11647;DHT22;5880;52.342;9.662;2022-10-17T03:05:47;17.10;68.10
11647;DHT22;5880;52.342;9.662;2022-10-17T03:08:13;17.10;67.20
11647;DHT22;5880;52.342;9.662;2022-10-17T03:10:39;17.10;67.30
11647;DHT22;5880;52.342;9.662;2022-10-17T03:13:04;17.10;68.10
11647;DHT22;5880;52.342;9.662;2022-10-17T03:15:30;17.10;67.40
11647;DHT22;5880;52.342;9.662;2022-10-17T03:17:56;17.10;67.50
11647;DHT22;5880;52.342;9.662;2022-10-17T03:20:21;17.10;67.50
11647;DHT22;5880;52.342;9.662;2022-10-17T03:22:47;17.10;67.70
11647;DHT22;5880;52.342;9.662;2022-10-17T03:25:12;17.10;67.60
11647;DHT22;5880;52.342;9.662;2022-10-17T03:27:38;17.10;67.70
11647;DHT22;5880;52.342;9.662;2022-10-17T03:30:04;17.10;67.60
11647;DHT22;5880;52.342;9.662;2022-10-17T03:32:32;17.10;67.70
11647;DHT22;5880;52.342;9.662;2022-10-17T03:34:58;17.10;67.90
11647;DHT22;5880;52.342;9.662;2022-10-17T03:37:24;17.10;67.80
11647;DHT22;5880;52.342;9.662;2022-10-17T03:39:50;17.10;67.80
11647;DHT22;5880;52.342;9.662;2022-10-17T03:42:16;17.10;67.90
11647;DHT22;5880;52.342;9.662;2022-10-17T03:44:41;17.20;67.80
11647;DHT22;5880;52.342;9.662;2022-10-17T03:47:07;17.10;67.90
11647;DHT22;5880;52.342;9.662;2022-10-17T03:49:33;17.20;67.90
11647;DHT22;5880;52.342;9.662;2022-10-17T03:51:59;17.10;67.90
11647;DHT22;5880;52.342;9.662;2022-10-17T03:54:24;17.20;67.90
11647;DHT22;5880;52.342;9.662;2022-10-17T03:56:50;17.20;68.00
11647;DHT22;5880;52.342;9.662;2022-10-17T03:59:16;17.20;68.00
11647;DHT22;5880;52.342;9.662;2022-10-17T04:01:42;17.20;67.90
11647;DHT22;5880;52.342;9.662;2022-10-17T04:04:08;17.20;67.90
11647;DHT22;5880;52.342;9.662;2022-10-17T04:06:35;17.10;67.90
11647;DHT22;5880;52.342;9.662;2022-10-17T04:09:03;17.10;67.90
11647;DHT22;5880;52.342;9.662;2022-10-17T04:11:30;17.10;68.00
11647;DHT22;5880;52.342;9.662;2022-10-17T04:13:56;17.10;68.00
11647;DHT22;5880;52.342;9.662;2022-10-17T04:16:24;17.10;68.10
11647;DHT22;5880;52.342;9.662;2022-10-17T04:18:54;17.10;68.10
11647;DHT22;5880;52.342;9.662;2022-10-17T04:21:25;17.10;68.60
11647;DHT22;5880;52.342;9.662;2022-10-17T04:23:56;17.10;68.30
11647;DHT22;5880;52.342;9.662;2022-10-17T04:26:23;17.10;68.80
11647;DHT22;5880;52.342;9.662;2022-10-17T04:28:50;17.10;68.40
11647;DHT22;5880;52.342;9.662;2022-10-17T04:31:16;17.10;68.70
11647;DHT22;5880;52.342;9.662;2022-10-17T04:33:46;17.10;68.80
11647;DHT22;5880;52.342;9.662;2022-10-17T04:36:15;17.20;69.20
11647;DHT22;5880;52.342;9.662;2022-10-17T04:38:43;17.10;69.10
11647;DHT22;5880;52.342;9.662;2022-10-17T04:41:12;17.20;69.20
11647;DHT22;5880;52.342;9.662;2022-10-17T04:43:39;17.20;69.50
11647;DHT22;5880;52.342;9.662;2022-10-17T04:46:07;17.20;69.40
11647;DHT22;5880;52.342;9.662;2022-10-17T04:48:35;17.20;69.70
11647;DHT22;5880;52.342;9.662;2022-10-17T04:51:04;17.20;69.50
11647;DHT22;5880;52.342;9.662;2022-10-17T04:53:33;17.30;69.80
11647;DHT22;5880;52.342;9.662;2022-10-17T04:56:00;17.30;69.80
11647;DHT22;5880;52.342;9.662;2022-10-17T04:58:31;17.30;69.70
11647;DHT22;5880;52.342;9.662;2022-10-17T05:00:57;17.30;69.70
11647;DHT22;5880;52.342;9.662;2022-10-17T05:03:22;17.30;70.50
11647;DHT22;5880;52.342;9.662;2022-10-17T05:05:48;17.40;69.80
11647;DHT22;5880;52.342;9.662;2022-10-17T05:08:14;17.40;69.70
11647;DHT22;5880;52.342;9.662;2022-10-17T05:10:42;17.40;69.70
11647;DHT22;5880;52.342;9.662;2022-10-17T05:13:09;17.40;69.90
11647;DHT22;5880;52.342;9.662;2022-10-17T05:15:36;17.40;69.80
11647;DHT22;5880;52.342;9.662;2022-10-17T05:18:03;17.40;69.80
11647;DHT22;5880;52.342;9.662;2022-10-17T05:20:30;17.40;69.80
11647;DHT22;5880;52.342;9.662;2022-10-17T05:22:58;17.50;69.90
11647;DHT22;5880;52.342;9.662;2022-10-17T05:25:24;17.50;70.20
11647;DHT22;5880;52.342;9.662;2022-10-17T05:27:50;17.50;70.00
11647;DHT22;5880;52.342;9.662;2022-10-17T05:30:16;17.50;70.00
11647;DHT22;5880;52.342;9.662;2022-10-17T05:32:42;17.50;70.10
11647;DHT22;5880;52.342;9.662;2022-10-17T05:35:08;17.50;70.10
11647;DHT22;5880;52.342;9.662;2022-10-17T05:37:34;17.50;70.10
11647;DHT22;5880;52.342;9.662;2022-10-17T05:39:59;17.50;70.10
11647;DHT22;5880;52.342;9.662;2022-10-17T05:42:25;17.50;70.10
11647;DHT22;5880;52.342;9.662;2022-10-17T05:44:51;17.60;70.10
11647;DHT22;5880;52.342;9.662;2022-10-17T05:47:16;17.60;70.10
11647;DHT22;5880;52.342;9.662;2022-10-17T05:49:42;17.60;70.10
11647;DHT22;5880;52.342;9.662;2022-10-17T05:52:08;17.60;70.10
11647;DHT22;5880;52.342;9.662;2022-10-17T05:54:33;17.60;70.10
11647;DHT22;5880;52.342;9.662;2022-10-17T05:56:59;17.60;70.10
11647;DHT22;5880;52.342;9.662;2022-10-17T05:59:25;17.60;70.10
11647;DHT22;5880;52.342;9.662;2022-10-17T06:01:52;17.60;70.10
11647;DHT22;5880;52.342;9.662;2022-10-17T06:04:18;17.60;70.20
11647;DHT22;5880;52.342;9.662;2022-10-17T06:06:45;17.60;70.10
11647;DHT22;5880;52.342;9.662;2022-10-17T06:09:10;17.70;70.30
11647;DHT22;5880;52.342;9.662;2022-10-17T06:11:36;17.70;70.30
11647;DHT22;5880;52.342;9.662;2022-10-17T06:14:03;17.60;70.30
11647;DHT22;5880;52.342;9.662;2022-10-17T06:16:29;17.70;70.40
11647;DHT22;5880;52.342;9.662;2022-10-17T06:18:55;17.70;70.40
11647;DHT22;5880;52.342;9.662;2022-10-17T06:21:23;17.70;70.40
11647;DHT22;5880;52.342;9.662;2022-10-17T06:23:51;17.70;70.50
11647;DHT22;5880;52.342;9.662;2022-10-17T06:26:18;17.70;70.40
11647;DHT22;5880;52.342;9.662;2022-10-17T06:28:44;17.70;70.50
11647;DHT22;5880;52.342;9.662;2022-10-17T06:31:13;17.70;70.50
11647;DHT22;5880;52.342;9.662;2022-10-17T06:33:40;17.70;70.70
11647;DHT22;5880;52.342;9.662;2022-10-17T06:36:07;17.80;70.60
11647;DHT22;5880;52.342;9.662;2022-10-17T06:38:36;17.80;70.60
11647;DHT22;5880;52.342;9.662;2022-10-17T06:43:33;17.80;70.80
11647;DHT22;5880;52.342;9.662;2022-10-17T06:45:59;17.90;70.80
11647;DHT22;5880;52.342;9.662;2022-10-17T06:48:25;17.80;70.80
11647;DHT22;5880;52.342;9.662;2022-10-17T06:50:50;17.90;70.90
11647;DHT22;5880;52.342;9.662;2022-10-17T06:53:16;17.90;70.90
11647;DHT22;5880;52.342;9.662;2022-10-17T06:55:42;18.00;71.00
11647;DHT22;5880;52.342;9.662;2022-10-17T06:58:07;18.00;71.00
11647;DHT22;5880;52.342;9.662;2022-10-17T07:00:33;18.00;71.10
11647;DHT22;5880;52.342;9.662;2022-10-17T07:02:59;18.10;71.20
11647;DHT22;5880;52.342;9.662;2022-10-17T07:05:24;18.10;71.20
11647;DHT22;5880;52.342;9.662;2022-10-17T07:07:50;18.10;71.20
11647;DHT22;5880;52.342;9.662;2022-10-17T07:10:16;18.20;71.20
11647;DHT22;5880;52.342;9.662;2022-10-17T07:12:41;18.20;71.20
11647;DHT22;5880;52.342;9.662;2022-10-17T07:15:09;18.20;71.20
11647;DHT22;5880;52.342;9.662;2022-10-17T07:17:35;18.20;71.30
11647;DHT22;5880;52.342;9.662;2022-10-17T07:20:01;18.30;71.50
11647;DHT22;5880;52.342;9.662;2022-10-17T07:22:26;18.40;71.60
11647;DHT22;5880;52.342;9.662;2022-10-17T07:24:52;18.40;71.70
11647;DHT22;5880;52.342;9.662;2022-10-17T07:27:18;18.50;71.90
11647;DHT22;5880;52.342;9.662;2022-10-17T07:29:43;18.50;72.00
11647;DHT22;5880;52.342;9.662;2022-10-17T07:32:09;18.60;72.00
11647;DHT22;5880;52.342;9.662;2022-10-17T07:34:35;18.70;72.90
11647;DHT22;5880;52.342;9.662;2022-10-17T07:37:00;18.80;72.10
11647;DHT22;5880;52.342;9.662;2022-10-17T07:39:27;18.80;72.20
11647;DHT22;5880;52.342;9.662;2022-10-17T07:41:53;18.90;72.20
11647;DHT22;5880;52.342;9.662;2022-10-17T07:44:19;18.90;72.20
11647;DHT22;5880;52.342;9.662;2022-10-17T07:46:45;19.00;72.20
11647;DHT22;5880;52.342;9.662;2022-10-17T07:49:10;19.10;72.20
11647;DHT22;5880;52.342;9.662;2022-10-17T07:51:36;19.20;72.10
11647;DHT22;5880;52.342;9.662;2022-10-17T07:54:04;19.30;72.20
11647;DHT22;5880;52.342;9.662;2022-10-17T07:56:30;19.30;72.20
11647;DHT22;5880;52.342;9.662;2022-10-17T07:58:56;19.40;72.10
11647;DHT22;5880;52.342;9.662;2022-10-17T08:01:22;19.50;72.20
11647;DHT22;5880;52.342;9.662;2022-10-17T08:03:50;19.50;72.10
11647;DHT22;5880;52.342;9.662;2022-10-17T08:06:16;19.50;72.00
11647;DHT22;5880;52.342;9.662;2022-10-17T08:08:43;19.60;71.90
11647;DHT22;5880;52.342;9.662;2022-10-17T08:11:12;19.70;72.00
11647;DHT22;5880;52.342;9.662;2022-10-17T08:13:39;19.70;72.00
11647;DHT22;5880;52.342;9.662;2022-10-17T08:16:08;19.80;71.90
11647;DHT22;5880;52.342;9.662;2022-10-17T08:18:37;19.80;71.90
11647;DHT22;5880;52.342;9.662;2022-10-17T08:21:05;19.90;71.90
11647;DHT22;5880;52.342;9.662;2022-10-17T08:23:32;20.00;71.90
11647;DHT22;5880;52.342;9.662;2022-10-17T08:26:00;20.00;71.80
11647;DHT22;5880;52.342;9.662;2022-10-17T08:28:27;20.00;71.80
11647;DHT22;5880;52.342;9.662;2022-10-17T08:31:00;20.10;71.80
11647;DHT22;5880;52.342;9.662;2022-10-17T08:33:26;20.20;71.70
11647;DHT22;5880;52.342;9.662;2022-10-17T08:35:52;20.20;71.60
11647;DHT22;5880;52.342;9.662;2022-10-17T08:38:18;20.30;71.60
11647;DHT22;5880;52.342;9.662;2022-10-17T08:40:48;20.30;71.60
11647;DHT22;5880;52.342;9.662;2022-10-17T08:43:33;20.40;71.60
11647;DHT22;5880;52.342;9.662;2022-10-17T08:46:09;20.40;71.60
11647;DHT22;5880;52.342;9.662;2022-10-17T08:48:40;20.50;71.40
11647;DHT22;5880;52.342;9.662;2022-10-17T08:51:19;20.50;71.40
11647;DHT22;5880;52.342;9.662;2022-10-17T08:53:55;20.60;71.50
11647;DHT22;5880;52.342;9.662;2022-10-17T08:56:57;20.60;71.30
11647;DHT22;5880;52.342;9.662;2022-10-17T08:59:26;20.60;71.40
11647;DHT22;5880;52.342;9.662;2022-10-17T09:02:03;20.70;71.20
11647;DHT22;5880;52.342;9.662;2022-10-17T09:10:57;20.90;71.20
11647;DHT22;5880;52.342;9.662;2022-10-17T09:13:55;20.90;70.90
11647;DHT22;5880;52.342;9.662;2022-10-17T09:16:44;21.00;71.20
11647;DHT22;5880;52.342;9.662;2022-10-17T09:19:39;21.10;71.00
11647;DHT22;5880;52.342;9.662;2022-10-17T09:22:17;21.00;70.70
11647;DHT22;5880;52.342;9.662;2022-10-17T09:24:53;21.10;70.70
11647;DHT22;5880;52.342;9.662;2022-10-17T09:30:34;21.20;70.60
11647;DHT22;5880;52.342;9.662;2022-10-17T09:33:18;21.30;70.60
11647;DHT22;5880;52.342;9.662;2022-10-17T09:35:47;21.30;70.90
11647;DHT22;5880;52.342;9.662;2022-10-17T09:38:22;21.40;71.20
11647;DHT22;5880;52.342;9.662;2022-10-17T09:40:55;21.50;71.30
11647;DHT22;5880;52.342;9.662;2022-10-17T09:43:24;21.60;71.50
11647;DHT22;5880;52.342;9.662;2022-10-17T09:46:24;21.70;71.90
11647;DHT22;5880;52.342;9.662;2022-10-17T09:49:02;21.90;71.00
11647;DHT22;5880;52.342;9.662;2022-10-17T09:51:33;22.10;71.60
11647;DHT22;5880;52.342;9.662;2022-10-17T09:54:02;22.40;71.70
11647;DHT22;5880;52.342;9.662;2022-10-17T09:56:29;22.50;70.80
11647;DHT22;5880;52.342;9.662;2022-10-17T09:58:56;22.70;70.40
11647;DHT22;5880;52.342;9.662;2022-10-17T10:01:28;22.90;69.80
11647;DHT22;5880;52.342;9.662;2022-10-17T10:04:11;23.00;68.80
11647;DHT22;5880;52.342;9.662;2022-10-17T10:07:00;23.00;68.00
11647;DHT22;5880;52.342;9.662;2022-10-17T10:09:30;23.10;67.50
11647;DHT22;5880;52.342;9.662;2022-10-17T10:12:00;23.10;67.80
11647;DHT22;5880;52.342;9.662;2022-10-17T10:14:30;23.20;68.10
11647;DHT22;5880;52.342;9.662;2022-10-17T10:16:59;23.20;68.20
11647;DHT22;5880;52.342;9.662;2022-10-17T10:22:14;23.40;66.90
11647;DHT22;5880;52.342;9.662;2022-10-17T10:24:41;23.50;67.40
11647;DHT22;5880;52.342;9.662;2022-10-17T10:27:12;23.50;67.20
11647;DHT22;5880;52.342;9.662;2022-10-17T10:29:47;23.60;65.50
11647;DHT22;5880;52.342;9.662;2022-10-17T10:32:33;23.70;65.80
11647;DHT22;5880;52.342;9.662;2022-10-17T10:35:23;23.70;65.10
11647;DHT22;5880;52.342;9.662;2022-10-17T10:37:58;23.80;64.90
11647;DHT22;5880;52.342;9.662;2022-10-17T10:40:51;23.80;65.50
11647;DHT22;5880;52.342;9.662;2022-10-17T10:43:45;23.80;65.40
11647;DHT22;5880;52.342;9.662;2022-10-17T10:46:27;23.60;64.80
11647;DHT22;5880;52.342;9.662;2022-10-17T10:48:58;23.80;65.00
11647;DHT22;5880;52.342;9.662;2022-10-17T10:51:33;23.80;65.40
11647;DHT22;5880;52.342;9.662;2022-10-17T10:54:17;23.90;65.50
11647;DHT22;5880;52.342;9.662;2022-10-17T10:56:56;23.90;65.10
11647;DHT22;5880;52.342;9.662;2022-10-17T11:08:18;23.90;64.20
11647;DHT22;5880;52.342;9.662;2022-10-17T11:11:20;23.90;64.40
11647;DHT22;5880;52.342;9.662;2022-10-17T11:14:04;23.90;63.70
11647;DHT22;5880;52.342;9.662;2022-10-17T11:19:32;24.00;62.90
11647;DHT22;5880;52.342;9.662;2022-10-17T11:27:35;24.20;62.40
11647;DHT22;5880;52.342;9.662;2022-10-17T11:30:01;24.20;63.10
11647;DHT22;5880;52.342;9.662;2022-10-17T11:32:43;24.20;63.00
11647;DHT22;5880;52.342;9.662;2022-10-17T11:35:20;24.30;62.10
11647;DHT22;5880;52.342;9.662;2022-10-17T11:37:57;24.20;61.80
11647;DHT22;5880;52.342;9.662;2022-10-17T11:40:37;24.20;62.00
11647;DHT22;5880;52.342;9.662;2022-10-17T11:43:24;24.30;63.20
11647;DHT22;5880;52.342;9.662;2022-10-17T11:45:58;24.20;61.40
11647;DHT22;5880;52.342;9.662;2022-10-17T11:48:34;24.20;62.00
11647;DHT22;5880;52.342;9.662;2022-10-17T11:51:09;24.20;61.60
11647;DHT22;5880;52.342;9.662;2022-10-17T11:53:50;24.20;62.20
11647;DHT22;5880;52.342;9.662;2022-10-17T11:56:41;24.20;61.50
11647;DHT22;5880;52.342;9.662;2022-10-17T12:02:12;24.30;61.50
11647;DHT22;5880;52.342;9.662;2022-10-17T12:10:46;24.30;61.30
11647;DHT22;5880;52.342;9.662;2022-10-17T12:15:55;24.30;61.70
11647;DHT22;5880;52.342;9.662;2022-10-17T12:18:25;24.30;62.00
11647;DHT22;5880;52.342;9.662;2022-10-17T12:20:59;24.10;61.50
11647;DHT22;5880;52.342;9.662;2022-10-17T12:23:29;24.30;61.40
11647;DHT22;5880;52.342;9.662;2022-10-17T12:26:02;24.30;61.60
11647;DHT22;5880;52.342;9.662;2022-10-17T12:28:43;24.40;61.60
11647;DHT22;5880;52.342;9.662;2022-10-17T12:31:27;24.40;60.50
11647;DHT22;5880;52.342;9.662;2022-10-17T12:33:55;24.40;60.60
11647;DHT22;5880;52.342;9.662;2022-10-17T12:52:23;24.40;60.60
11647;DHT22;5880;52.342;9.662;2022-10-17T12:57:50;24.40;60.30
11647;DHT22;5880;52.342;9.662;2022-10-17T13:00:26;24.40;60.50
11647;DHT22;5880;52.342;9.662;2022-10-17T13:03:14;24.30;60.70
11647;DHT22;5880;52.342;9.662;2022-10-17T13:05:50;24.30;60.60
11647;DHT22;5880;52.342;9.662;2022-10-17T13:08:24;24.30;60.60
11647;DHT22;5880;52.342;9.662;2022-10-17T13:10:54;24.30;60.50
11647;DHT22;5880;52.342;9.662;2022-10-17T13:13:48;24.30;61.00
11647;DHT22;5880;52.342;9.662;2022-10-17T13:18:58;24.30;60.40
11647;DHT22;5880;52.342;9.662;2022-10-17T13:21:26;24.30;61.10
11647;DHT22;5880;52.342;9.662;2022-10-17T13:23:52;24.30;61.00
11647;DHT22;5880;52.342;9.662;2022-10-17T13:26:21;24.30;61.20
11647;DHT22;5880;52.342;9.662;2022-10-17T13:29:09;24.30;61.10
11647;DHT22;5880;52.342;9.662;2022-10-17T13:31:40;24.20;60.70
11647;DHT22;5880;52.342;9.662;2022-10-17T13:34:17;24.20;61.10
11647;DHT22;5880;52.342;9.662;2022-10-17T13:36:47;24.20;61.00
11647;DHT22;5880;52.342;9.662;2022-10-17T13:39:18;24.20;61.20
11647;DHT22;5880;52.342;9.662;2022-10-17T13:41:46;24.20;61.40
11647;DHT22;5880;52.342;9.662;2022-10-17T13:44:15;24.20;61.60
11647;DHT22;5880;52.342;9.662;2022-10-17T13:46:44;24.20;61.40
11647;DHT22;5880;52.342;9.662;2022-10-17T13:49:22;24.20;61.40
11647;DHT22;5880;52.342;9.662;2022-10-17T13:51:51;24.20;61.30
11647;DHT22;5880;52.342;9.662;2022-10-17T13:56:55;24.20;61.70
11647;DHT22;5880;52.342;9.662;2022-10-17T13:59:31;24.20;61.50
11647;DHT22;5880;52.342;9.662;2022-10-17T14:02:02;24.10;61.50
11647;DHT22;5880;52.342;9.662;2022-10-17T14:04:28;24.00;61.40
11647;DHT22;5880;52.342;9.662;2022-10-17T14:06:53;24.00;61.60
11647;DHT22;5880;52.342;9.662;2022-10-17T14:09:23;24.00;61.60
11647;DHT22;5880;52.342;9.662;2022-10-17T14:12:10;24.00;61.60
11647;DHT22;5880;52.342;9.662;2022-10-17T14:14:38;24.00;61.60
11647;DHT22;5880;52.342;9.662;2022-10-17T14:17:24;24.00;61.90
11647;DHT22;5880;52.342;9.662;2022-10-17T14:19:55;24.00;62.10
11647;DHT22;5880;52.342;9.662;2022-10-17T14:22:24;23.90;62.00
11647;DHT22;5880;52.342;9.662;2022-10-17T14:24:52;23.90;62.10
11647;DHT22;5880;52.342;9.662;2022-10-17T14:27:32;23.90;62.10
11647;DHT22;5880;52.342;9.662;2022-10-17T14:30:05;23.90;62.30
11647;DHT22;5880;52.342;9.662;2022-10-17T14:32:55;23.90;62.50
11647;DHT22;5880;52.342;9.662;2022-10-17T14:35:22;23.80;62.60
11647;DHT22;5880;52.342;9.662;2022-10-17T14:37:51;23.80;62.60
11647;DHT22;5880;52.342;9.662;2022-10-17T14:40:23;23.80;62.60
11647;DHT22;5880;52.342;9.662;2022-10-17T14:42:56;23.80;62.70
11647;DHT22;5880;52.342;9.662;2022-10-17T14:47:59;23.70;62.90
11647;DHT22;5880;52.342;9.662;2022-10-17T14:50:34;23.70;63.00
11647;DHT22;5880;52.342;9.662;2022-10-17T14:55:37;23.70;62.90
11647;DHT22;5880;52.342;9.662;2022-10-17T14:58:19;23.70;63.00
11647;DHT22;5880;52.342;9.662;2022-10-17T15:00:49;23.70;63.20
11647;DHT22;5880;52.342;9.662;2022-10-17T15:03:14;23.60;62.90
11647;DHT22;5880;52.342;9.662;2022-10-17T15:05:44;23.60;62.90
11647;DHT22;5880;52.342;9.662;2022-10-17T15:08:15;23.60;62.90
11647;DHT22;5880;52.342;9.662;2022-10-17T15:10:43;23.50;63.10
11647;DHT22;5880;52.342;9.662;2022-10-17T15:13:11;23.50;63.10
11647;DHT22;5880;52.342;9.662;2022-10-17T15:15:38;23.50;63.20
11647;DHT22;5880;52.342;9.662;2022-10-17T15:18:05;23.40;63.10
11647;DHT22;5880;52.342;9.662;2022-10-17T15:20:32;23.40;63.10
11647;DHT22;5880;52.342;9.662;2022-10-17T15:23:00;23.40;63.30
11647;DHT22;5880;52.342;9.662;2022-10-17T15:25:28;23.30;63.40
11647;DHT22;5880;52.342;9.662;2022-10-17T15:27:55;23.30;63.40
11647;DHT22;5880;52.342;9.662;2022-10-17T15:30:24;23.30;63.40
11647;DHT22;5880;52.342;9.662;2022-10-17T15:32:52;23.30;63.60
11647;DHT22;5880;52.342;9.662;2022-10-17T15:35:19;23.30;63.60
11647;DHT22;5880;52.342;9.662;2022-10-17T15:37:46;23.20;63.50
11647;DHT22;5880;52.342;9.662;2022-10-17T15:40:31;23.20;63.50
11647;DHT22;5880;52.342;9.662;2022-10-17T15:42:57;23.10;63.50
11647;DHT22;5880;52.342;9.662;2022-10-17T15:45:23;23.10;63.50
11647;DHT22;5880;52.342;9.662;2022-10-17T15:48:05;23.10;63.50
11647;DHT22;5880;52.342;9.662;2022-10-17T15:50:31;23.10;63.50
11647;DHT22;5880;52.342;9.662;2022-10-17T15:52:58;23.10;63.50
11647;DHT22;5880;52.342;9.662;2022-10-17T15:55:24;23.00;63.40
11647;DHT22;5880;52.342;9.662;2022-10-17T15:57:50;23.00;63.40
11647;DHT22;5880;52.342;9.662;2022-10-17T16:00:21;23.00;63.50
11647;DHT22;5880;52.342;9.662;2022-10-17T16:02:49;23.00;63.70
11647;DHT22;5880;52.342;9.662;2022-10-17T16:05:18;23.00;63.60
11647;DHT22;5880;52.342;9.662;2022-10-17T16:07:51;23.00;63.60
11647;DHT22;5880;52.342;9.662;2022-10-17T16:10:18;23.00;63.60
11647;DHT22;5880;52.342;9.662;2022-10-17T16:12:45;23.00;63.70
11647;DHT22;5880;52.342;9.662;2022-10-17T16:15:24;22.90;63.70
11647;DHT22;5880;52.342;9.662;2022-10-17T16:17:53;22.90;63.80
11647;DHT22;5880;52.342;9.662;2022-10-17T16:20:21;22.90;63.80
11647;DHT22;5880;52.342;9.662;2022-10-17T16:22:47;22.90;63.80
11647;DHT22;5880;52.342;9.662;2022-10-17T16:25:20;22.90;64.00
11647;DHT22;5880;52.342;9.662;2022-10-17T16:27:51;22.80;64.20
11647;DHT22;5880;52.342;9.662;2022-10-17T16:30:18;22.80;64.20
11647;DHT22;5880;52.342;9.662;2022-10-17T16:32:44;22.80;64.10
11647;DHT22;5880;52.342;9.662;2022-10-17T16:35:16;22.80;64.20
11647;DHT22;5880;52.342;9.662;2022-10-17T16:37:44;22.70;64.40
11647;DHT22;5880;52.342;9.662;2022-10-17T16:40:10;22.70;64.30
11647;DHT22;5880;52.342;9.662;2022-10-17T16:42:36;22.60;64.30
11647;DHT22;5880;52.342;9.662;2022-10-17T16:45:02;22.60;64.40
11647;DHT22;5880;52.342;9.662;2022-10-17T16:47:28;22.60;64.50
11647;DHT22;5880;52.342;9.662;2022-10-17T16:49:54;22.60;64.50
11647;DHT22;5880;52.342;9.662;2022-10-17T16:52:20;22.50;64.60
11647;DHT22;5880;52.342;9.662;2022-10-17T16:54:45;22.50;64.70
11647;DHT22;5880;52.342;9.662;2022-10-17T16:57:11;22.40;64.80
11647;DHT22;5880;52.342;9.662;2022-10-17T16:59:37;22.40;64.90
11647;DHT22;5880;52.342;9.662;2022-10-17T17:02:02;22.40;64.90
11647;DHT22;5880;52.342;9.662;2022-10-17T17:04:29;22.40;65.00
11647;DHT22;5880;52.342;9.662;2022-10-17T17:06:54;22.40;65.20
11647;DHT22;5880;52.342;9.662;2022-10-17T17:09:20;22.30;65.20
11647;DHT22;5880;52.342;9.662;2022-10-17T17:11:46;22.30;65.30
11647;DHT22;5880;52.342;9.662;2022-10-17T17:14:12;22.30;65.40
11647;DHT22;5880;52.342;9.662;2022-10-17T17:16:39;22.20;65.30
11647;DHT22;5880;52.342;9.662;2022-10-17T17:19:11;22.20;65.40
11647;DHT22;5880;52.342;9.662;2022-10-17T17:21:40;22.20;65.70
11647;DHT22;5880;52.342;9.662;2022-10-17T17:24:12;22.20;65.40
11647;DHT22;5880;52.342;9.662;2022-10-17T17:26:38;22.10;65.40
11647;DHT22;5880;52.342;9.662;2022-10-17T17:29:05;22.20;65.50
11647;DHT22;5880;52.342;9.662;2022-10-17T17:31:32;22.20;65.50
11647;DHT22;5880;52.342;9.662;2022-10-17T17:33:59;22.10;65.60
11647;DHT22;5880;52.342;9.662;2022-10-17T17:36:29;22.10;65.60
11647;DHT22;5880;52.342;9.662;2022-10-17T17:38:59;22.10;65.70
11647;DHT22;5880;52.342;9.662;2022-10-17T17:41:26;22.20;65.70
11647;DHT22;5880;52.342;9.662;2022-10-17T17:43:53;22.20;65.60
11647;DHT22;5880;52.342;9.662;2022-10-17T17:46:20;22.10;65.60
11647;DHT22;5880;52.342;9.662;2022-10-17T17:48:48;22.10;65.90
11647;DHT22;5880;52.342;9.662;2022-10-17T17:51:17;22.10;65.80